createdAt,value
2023-05-24T00:00:12.239Z,8.88
2023-05-24T00:01:12.209Z,8.91
2023-05-24T00:02:12.197Z,8.99
2023-05-24T00:03:12.301Z,8.89
2023-05-24T00:04:12.299Z,8.81
2023-05-24T00:05:12.223Z,8.82
2023-05-24T00:06:12.169Z,8.87
2023-05-24T00:07:12.199Z,8.74
2023-05-24T00:08:12.171Z,8.69
2023-05-24T00:09:12.152Z,8.73
2023-05-24T00:10:12.133Z,8.67
2023-05-24T00:11:12.120Z,8.64
2023-05-24T00:12:12.146Z,8.71
2023-05-24T00:13:12.111Z,8.63
2023-05-24T00:14:12.103Z,8.63
2023-05-24T00:15:12.102Z,8.69
2023-05-24T00:16:12.131Z,8.71
2023-05-24T00:17:12.110Z,8.67
2023-05-24T00:18:12.077Z,8.74
2023-05-24T00:19:12.074Z,8.66
2023-05-24T00:20:12.155Z,8.64
2023-05-24T00:21:12.083Z,8.67
2023-05-24T00:22:12.080Z,8.70
2023-05-24T00:23:12.038Z,8.64
2023-05-24T00:24:12.035Z,8.63
2023-05-24T00:25:12.025Z,8.63
2023-05-24T00:26:12.030Z,8.70
2023-05-24T00:27:11.993Z,8.76
2023-05-24T00:28:11.997Z,8.69
2023-05-24T00:29:11.996Z,8.71
2023-05-24T00:30:11.973Z,8.78
2023-05-24T00:31:11.995Z,8.88
2023-05-24T00:32:12.012Z,8.82
2023-05-24T00:33:11.957Z,8.94
2023-05-24T00:34:11.949Z,8.91
2023-05-24T00:35:11.975Z,8.95
2023-05-24T00:36:11.957Z,8.91
2023-05-24T00:37:11.947Z,8.99
2023-05-24T00:38:11.920Z,8.97
2023-05-24T00:39:11.905Z,8.94
2023-05-24T00:40:11.928Z,8.97
2023-05-24T00:41:11.892Z,8.99
2023-05-24T00:42:11.891Z,8.89
2023-05-24T00:43:11.877Z,8.94
2023-05-24T00:44:11.872Z,8.91
2023-05-24T00:45:11.893Z,8.87
2023-05-24T00:46:11.955Z,8.85
2023-05-24T00:47:11.846Z,8.81
2023-05-24T00:48:11.840Z,8.95
2023-05-24T00:49:11.866Z,8.91
2023-05-24T00:50:11.902Z,8.84
2023-05-24T00:51:11.815Z,8.87
2023-05-24T00:52:11.810Z,8.85
2023-05-24T00:53:11.798Z,8.92
2023-05-24T00:54:11.841Z,8.87
2023-05-24T00:55:11.793Z,8.88
2023-05-24T00:56:11.774Z,8.92
2023-05-24T00:57:11.777Z,8.79
2023-05-24T00:58:11.761Z,8.87
2023-05-24T00:59:11.778Z,8.85
2023-05-24T01:00:11.738Z,8.81
2023-05-24T01:01:11.780Z,8.73
2023-05-24T01:02:11.726Z,8.73
2023-05-24T01:03:11.791Z,8.73
2023-05-24T01:04:11.745Z,8.70
2023-05-24T01:05:11.727Z,8.71
2023-05-24T01:06:11.707Z,8.69
2023-05-24T01:07:11.688Z,8.61
2023-05-24T01:08:11.732Z,8.63
2023-05-24T01:09:11.674Z,8.70
2023-05-24T01:10:11.678Z,8.60
2023-05-24T01:11:11.661Z,8.67
2023-05-24T01:12:11.654Z,8.60
2023-05-24T01:13:11.677Z,8.63
2023-05-24T01:14:11.646Z,8.48
2023-05-24T01:15:11.631Z,8.44
2023-05-24T01:16:11.700Z,8.34
2023-05-24T01:17:11.616Z,8.51
2023-05-24T01:18:11.646Z,8.49
2023-05-24T01:19:11.597Z,8.46
2023-05-24T01:20:11.642Z,8.34
2023-05-24T01:21:11.585Z,8.41
2023-05-24T01:22:11.629Z,8.28
2023-05-24T01:23:11.587Z,8.30
2023-05-24T01:24:11.570Z,8.16
2023-05-24T01:25:11.555Z,8.24
2023-05-24T01:26:11.559Z,8.20
2023-05-24T01:27:11.584Z,8.05
2023-05-24T01:28:11.540Z,8.08
2023-05-24T01:29:11.533Z,8.08
2023-05-24T01:30:11.526Z,8.01
2023-05-24T01:31:11.588Z,7.97
2023-05-24T01:32:11.529Z,7.91
2023-05-24T01:33:11.490Z,7.90
2023-05-24T01:34:11.483Z,7.83
2023-05-24T01:35:11.472Z,7.80
2023-05-24T01:36:11.525Z,7.75
2023-05-24T01:37:11.493Z,7.67
2023-05-24T01:38:11.456Z,7.69
2023-05-24T01:39:11.445Z,7.69
2023-05-24T01:40:11.442Z,7.63
2023-05-24T01:41:11.453Z,7.60
2023-05-24T01:42:11.443Z,7.61
2023-05-24T01:43:11.412Z,7.47
2023-05-24T01:44:11.410Z,7.51
2023-05-24T01:45:11.392Z,7.53
2023-05-24T01:46:11.414Z,7.42
2023-05-24T01:47:11.576Z,7.39
2023-05-24T01:48:11.377Z,7.42
2023-05-24T01:49:11.371Z,7.39
2023-05-24T01:50:11.365Z,7.40
2023-05-24T01:51:11.386Z,7.33
2023-05-24T01:52:11.385Z,7.36
2023-05-24T01:53:11.337Z,7.29
2023-05-24T01:54:11.341Z,7.21
2023-05-24T01:55:11.322Z,7.14
2023-05-24T01:56:11.341Z,7.06
2023-05-24T01:57:11.312Z,7.05
2023-05-24T01:58:11.299Z,7.00
2023-05-24T01:59:11.290Z,6.96
2023-05-24T02:00:11.330Z,6.81
2023-05-24T02:01:11.317Z,6.87
2023-05-24T02:02:11.300Z,6.82
2023-05-24T02:03:11.281Z,6.72
2023-05-24T02:04:11.257Z,6.69
2023-05-24T02:05:11.267Z,6.49
2023-05-24T02:06:11.235Z,6.45
2023-05-24T02:07:11.233Z,6.41
2023-05-24T02:08:11.248Z,6.30
2023-05-24T02:09:11.218Z,6.20
2023-05-24T02:10:11.225Z,6.09
2023-05-24T02:11:11.197Z,5.97
2023-05-24T02:12:11.188Z,6.07
2023-05-24T02:13:11.174Z,6.04
2023-05-24T02:14:11.207Z,6.12
2023-05-24T02:15:11.199Z,5.98
2023-05-24T02:16:11.176Z,5.99
2023-05-24T02:17:11.164Z,5.93
2023-05-24T02:18:11.144Z,5.91
2023-05-24T02:19:11.157Z,5.91
2023-05-24T02:20:11.234Z,5.82
2023-05-24T02:21:11.114Z,5.86
2023-05-24T02:22:11.107Z,5.73
2023-05-24T02:23:11.128Z,5.82
2023-05-24T02:24:11.120Z,5.75
2023-05-24T02:25:11.104Z,5.65
2023-05-24T02:26:11.083Z,5.59
2023-05-24T02:27:11.081Z,5.64
2023-05-24T02:28:11.114Z,5.57
2023-05-24T02:29:11.062Z,5.48
2023-05-24T02:30:11.060Z,5.61
2023-05-24T02:31:11.077Z,5.48
2023-05-24T02:32:11.038Z,5.47
2023-05-24T02:33:11.128Z,5.43
2023-05-24T02:34:11.016Z,5.44
2023-05-24T02:35:11.016Z,5.46
2023-05-24T02:36:11.037Z,5.48
2023-05-24T02:37:11.016Z,5.43
2023-05-24T02:38:11.020Z,5.44
2023-05-24T02:39:10.981Z,5.39
2023-05-24T02:40:10.970Z,5.48
2023-05-24T02:41:10.959Z,5.36
2023-05-24T02:42:10.983Z,5.33
2023-05-24T02:43:10.952Z,5.36
2023-05-24T02:44:10.935Z,5.41
2023-05-24T02:45:10.933Z,5.38
2023-05-24T02:46:10.958Z,5.33
2023-05-24T02:47:10.946Z,5.35
2023-05-24T02:48:10.928Z,5.30
2023-05-24T02:49:10.906Z,5.29
2023-05-24T02:50:10.887Z,5.29
2023-05-24T02:51:10.913Z,5.26
2023-05-24T02:52:10.905Z,5.21
2023-05-24T02:53:10.866Z,5.17
2023-05-24T02:54:10.863Z,5.18
2023-05-24T02:55:10.854Z,5.14
2023-05-24T02:56:10.869Z,5.28
2023-05-24T02:57:10.868Z,5.12
2023-05-24T02:58:10.820Z,5.15
2023-05-24T02:59:10.824Z,5.14
2023-05-24T03:00:10.825Z,5.08
2023-05-24T03:01:10.826Z,5.15
2023-05-24T03:02:10.799Z,5.07
2023-05-24T03:03:10.910Z,5.14
2023-05-24T03:04:10.871Z,5.15
2023-05-24T03:05:10.784Z,5.11
2023-05-24T03:06:10.787Z,5.07
2023-05-24T03:07:10.769Z,5.15
2023-05-24T03:08:10.753Z,5.00
2023-05-24T03:09:10.738Z,5.02
2023-05-24T03:10:10.752Z,4.99
2023-05-24T03:11:10.739Z,4.93
2023-05-24T03:12:10.716Z,4.94
2023-05-24T03:13:10.710Z,4.94
2023-05-24T03:14:10.707Z,4.84
2023-05-24T03:15:10.776Z,4.89
2023-05-24T03:16:10.725Z,4.90
2023-05-24T03:17:10.679Z,4.96
2023-05-24T03:18:10.703Z,4.86
2023-05-24T03:19:10.655Z,4.89
2023-05-24T03:20:10.731Z,4.90
2023-05-24T03:21:10.677Z,4.92
2023-05-24T03:22:10.640Z,4.96
2023-05-24T03:23:10.622Z,4.92
2023-05-24T03:24:10.616Z,4.96
2023-05-24T03:25:10.636Z,4.93
2023-05-24T03:26:10.607Z,4.90
2023-05-24T03:27:10.597Z,4.94
2023-05-24T03:28:10.601Z,4.97
2023-05-24T03:29:10.608Z,4.96
2023-05-24T03:30:10.606Z,4.99
2023-05-24T03:31:10.630Z,4.94
2023-05-24T03:32:10.557Z,4.90
2023-05-24T03:33:10.610Z,4.90
2023-05-24T03:34:10.567Z,5.04
2023-05-24T03:35:10.540Z,4.97
2023-05-24T03:36:10.534Z,5.00
2023-05-24T03:37:10.546Z,4.99
2023-05-24T03:38:10.516Z,4.99
2023-05-24T03:39:10.535Z,5.00
2023-05-24T03:40:10.503Z,5.05
2023-05-24T03:41:10.497Z,5.10
2023-05-24T03:42:10.486Z,5.02
2023-05-24T03:43:10.498Z,5.11
2023-05-24T03:44:10.511Z,5.14
2023-05-24T03:45:10.473Z,5.20
2023-05-24T03:46:10.480Z,5.26
2023-05-24T03:47:10.445Z,5.28
2023-05-24T03:48:10.478Z,5.46
2023-05-24T03:49:10.430Z,5.46
2023-05-24T03:50:10.424Z,5.66
2023-05-24T03:51:10.408Z,5.68
2023-05-24T03:52:10.403Z,5.84
2023-05-24T03:53:10.418Z,6.07
2023-05-24T03:54:10.389Z,6.30
2023-05-24T03:55:10.395Z,6.72
2023-05-24T03:56:10.366Z,6.78
2023-05-24T03:57:10.366Z,7.07
2023-05-24T03:58:10.377Z,7.13
2023-05-24T03:59:10.353Z,7.23
2023-05-24T04:00:10.336Z,7.40
2023-05-24T04:01:18.837Z,7.42
2023-05-24T04:02:12.325Z,7.38
2023-05-24T04:03:10.398Z,7.35
2023-05-24T04:04:10.337Z,7.21
2023-05-24T04:05:10.295Z,7.24
2023-05-24T04:06:10.291Z,7.23
2023-05-24T04:07:10.312Z,7.13
2023-05-24T04:08:10.301Z,7.20
2023-05-24T04:09:10.278Z,7.10
2023-05-24T04:10:10.257Z,7.03
2023-05-24T04:11:10.250Z,6.97
2023-05-24T04:12:10.274Z,6.96
2023-05-24T04:13:10.265Z,7.00
2023-05-24T04:14:10.223Z,7.05
2023-05-24T04:15:10.241Z,7.15
2023-05-24T04:16:10.214Z,7.17
2023-05-24T04:17:10.347Z,7.28
2023-05-24T04:18:10.313Z,7.23
2023-05-24T04:19:10.194Z,7.63
2023-05-24T04:20:10.288Z,8.08
2023-05-24T04:21:10.173Z,8.73
2023-05-24T04:22:10.191Z,9.29
2023-05-24T04:23:10.150Z,9.62
2023-05-24T04:24:10.141Z,10.07
2023-05-24T04:25:10.249Z,10.46
2023-05-24T04:26:10.129Z,11.02
2023-05-24T04:27:10.149Z,11.15
2023-05-24T04:28:10.131Z,11.55
2023-05-24T04:29:10.126Z,11.77
2023-05-24T04:30:10.093Z,12.06
2023-05-24T04:31:10.177Z,12.27
2023-05-24T04:32:10.117Z,12.54
2023-05-24T04:33:10.170Z,12.50
2023-05-24T04:34:10.064Z,11.87
2023-05-24T04:35:10.063Z,11.27
2023-05-24T04:36:10.091Z,11.02
2023-05-24T04:37:10.046Z,10.54
2023-05-24T04:38:10.034Z,10.28
2023-05-24T04:39:10.046Z,10.04
2023-05-24T04:40:10.026Z,9.76
2023-05-24T04:41:10.055Z,9.51
2023-05-24T04:42:10.024Z,9.36
2023-05-24T04:43:10.000Z,9.11
2023-05-24T04:44:09.992Z,8.85
2023-05-24T04:45:09.996Z,8.69
2023-05-24T04:46:10.012Z,8.61
2023-05-24T04:47:09.970Z,8.56
2023-05-24T04:48:09.965Z,8.55
2023-05-24T04:49:09.957Z,8.46
2023-05-24T04:50:10.005Z,8.44
2023-05-24T04:51:09.963Z,8.46
2023-05-24T04:52:09.924Z,8.38
2023-05-24T04:53:09.929Z,8.42
2023-05-24T04:54:09.910Z,8.38
2023-05-24T04:55:09.927Z,8.31
2023-05-24T04:56:09.899Z,8.44
2023-05-24T04:57:09.884Z,8.45
2023-05-24T04:58:10.810Z,8.36
2023-05-24T04:59:09.884Z,8.31
2023-05-24T05:00:09.892Z,8.16
2023-05-24T05:01:09.855Z,8.15
2023-05-24T05:02:09.923Z,8.06
2023-05-24T05:03:09.918Z,8.06
2023-05-24T05:04:09.883Z,8.05
2023-05-24T05:05:09.850Z,8.06
2023-05-24T05:06:09.815Z,7.87
2023-05-24T05:07:09.815Z,7.83
2023-05-24T05:08:09.876Z,7.94
2023-05-24T05:09:09.813Z,7.98
2023-05-24T05:10:09.822Z,8.15
2023-05-24T05:11:09.790Z,8.12
2023-05-24T05:12:09.773Z,8.13
2023-05-24T05:13:09.769Z,8.18
2023-05-24T05:14:09.912Z,8.28
2023-05-24T05:15:09.752Z,8.42
2023-05-24T05:16:09.774Z,8.53
2023-05-24T05:17:09.729Z,8.52
2023-05-24T05:18:09.766Z,8.73
2023-05-24T05:19:09.745Z,8.67
2023-05-24T05:20:09.736Z,8.69
2023-05-24T05:21:09.701Z,8.73
2023-05-24T05:22:09.695Z,8.94
2023-05-24T05:23:09.701Z,9.02
2023-05-24T05:24:09.695Z,9.21
2023-05-24T05:25:09.661Z,9.22
2023-05-24T05:26:09.669Z,9.36
2023-05-24T05:27:09.660Z,9.37
2023-05-24T05:28:09.661Z,9.54
2023-05-24T05:29:09.654Z,9.66
2023-05-24T05:30:09.640Z,9.86
2023-05-24T05:31:09.619Z,9.91
2023-05-24T05:32:09.672Z,9.99
2023-05-24T05:33:09.785Z,10.10
2023-05-24T05:34:09.601Z,10.15
2023-05-24T05:35:09.590Z,10.17
2023-05-24T05:36:09.579Z,10.26
2023-05-24T05:37:09.570Z,10.25
2023-05-24T05:38:09.625Z,10.22
2023-05-24T05:39:09.584Z,10.05
2023-05-24T05:40:09.545Z,9.97
2023-05-24T05:41:09.536Z,9.91
2023-05-24T05:42:09.563Z,9.91
2023-05-24T05:43:09.552Z,9.91
2023-05-24T05:44:09.523Z,9.99
2023-05-24T05:45:09.502Z,9.91
2023-05-24T05:46:09.536Z,9.83
2023-05-24T05:47:09.535Z,9.83
2023-05-24T05:48:09.546Z,9.97
2023-05-24T05:49:09.484Z,10.02
2023-05-24T05:50:09.474Z,9.94
2023-05-24T05:51:09.459Z,10.01
2023-05-24T05:52:09.483Z,9.95
2023-05-24T05:53:09.445Z,9.64
2023-05-24T05:54:09.438Z,9.68
2023-05-24T05:55:09.435Z,9.44
2023-05-24T05:56:09.435Z,9.39
2023-05-24T05:57:09.460Z,9.26
2023-05-24T05:58:10.412Z,9.25
2023-05-24T05:59:09.406Z,9.29
2023-05-24T06:00:09.397Z,9.39
2023-05-24T06:01:09.415Z,9.39
2023-05-24T06:02:09.502Z,9.46
2023-05-24T06:03:09.471Z,9.54
2023-05-24T06:04:09.477Z,9.47
2023-05-24T06:05:09.365Z,9.50
2023-05-24T06:06:09.369Z,9.46
2023-05-24T06:07:09.342Z,9.43
2023-05-24T06:08:09.354Z,9.37
2023-05-24T06:09:09.326Z,9.36
2023-05-24T06:10:09.322Z,9.47
2023-05-24T06:11:09.329Z,9.50
2023-05-24T06:12:09.300Z,9.56
2023-05-24T06:13:09.299Z,9.58
2023-05-24T06:14:09.288Z,9.59
2023-05-24T06:15:09.286Z,9.61
2023-05-24T06:16:09.343Z,9.64
2023-05-24T06:17:09.286Z,9.55
2023-05-24T06:18:09.255Z,9.55
2023-05-24T06:19:09.236Z,9.47
2023-05-24T06:20:09.291Z,9.44
2023-05-24T06:21:09.252Z,9.54
2023-05-24T06:22:09.223Z,9.44
2023-05-24T06:23:09.209Z,9.48
2023-05-24T06:24:09.201Z,9.43
2023-05-24T06:25:09.226Z,9.46
2023-05-24T06:26:09.190Z,9.51
2023-05-24T06:27:09.195Z,9.77
2023-05-24T06:28:09.170Z,9.94
2023-05-24T06:29:09.157Z,9.98
2023-05-24T06:30:09.193Z,10.04
2023-05-24T06:31:09.200Z,9.91
2023-05-24T06:32:09.135Z,9.97
2023-05-24T06:33:09.129Z,10.02
2023-05-24T06:34:09.148Z,9.94
2023-05-24T06:35:09.135Z,9.99
2023-05-24T06:36:09.110Z,9.91
2023-05-24T06:37:09.103Z,10.01
2023-05-24T06:38:09.109Z,9.94
2023-05-24T06:39:09.111Z,10.07
2023-05-24T06:40:09.081Z,10.25
2023-05-24T06:41:09.067Z,10.33
2023-05-24T06:42:09.082Z,10.30
2023-05-24T06:43:09.051Z,10.25
2023-05-24T06:44:09.064Z,10.01
2023-05-24T06:45:09.038Z,9.86
2023-05-24T06:46:09.028Z,10.02
2023-05-24T06:47:09.045Z,9.97
2023-05-24T06:48:09.074Z,9.83
2023-05-24T06:49:09.084Z,9.87
2023-05-24T06:50:09.010Z,10.07
2023-05-24T06:51:08.982Z,10.19
2023-05-24T06:52:08.998Z,10.26
2023-05-24T06:53:09.016Z,10.25
2023-05-24T06:54:08.968Z,10.25
2023-05-24T06:55:09.012Z,10.38
2023-05-24T06:56:08.946Z,10.28
2023-05-24T06:57:08.968Z,10.30
2023-05-24T06:58:09.023Z,10.35
2023-05-24T06:59:08.931Z,10.49
2023-05-24T07:00:08.922Z,10.51
2023-05-24T07:01:08.974Z,10.56
2023-05-24T07:02:08.918Z,10.46
2023-05-24T07:03:08.940Z,10.49
2023-05-24T07:04:08.911Z,10.57
2023-05-24T07:05:08.881Z,10.75
2023-05-24T07:06:08.872Z,10.71
2023-05-24T07:07:08.892Z,10.86
2023-05-24T07:08:08.877Z,10.94
2023-05-24T07:09:08.844Z,11.14
2023-05-24T07:10:08.903Z,11.07
2023-05-24T07:11:08.881Z,11.18
2023-05-24T07:12:09.112Z,11.29
2023-05-24T07:13:08.820Z,11.41
2023-05-24T07:14:08.817Z,11.40
2023-05-24T07:15:08.807Z,11.50
2023-05-24T07:16:08.796Z,11.48
2023-05-24T07:17:08.906Z,11.57
2023-05-24T07:18:08.929Z,11.69
2023-05-24T07:19:08.762Z,11.75
2023-05-24T07:20:08.780Z,11.72
2023-05-24T07:21:08.746Z,11.78
2023-05-24T07:22:08.778Z,11.83
2023-05-24T07:23:08.735Z,11.80
2023-05-24T07:24:08.724Z,11.65
2023-05-24T07:25:08.718Z,11.77
2023-05-24T07:26:08.735Z,11.70
2023-05-24T07:27:08.741Z,11.70
2023-05-24T07:28:08.696Z,11.83
2023-05-24T07:29:08.688Z,11.94
2023-05-24T07:30:19.729Z,12.13
2023-05-24T07:31:10.695Z,12.21
2023-05-24T07:32:08.728Z,12.37
2023-05-24T07:33:08.686Z,12.50
2023-05-24T07:34:08.677Z,12.64
2023-05-24T07:35:08.642Z,12.85
2023-05-24T07:36:08.657Z,13.03
2023-05-24T07:37:08.625Z,13.03
2023-05-24T07:38:08.622Z,13.41
2023-05-24T07:39:08.611Z,13.44
2023-05-24T07:40:08.629Z,13.86
2023-05-24T07:41:08.619Z,14.22
2023-05-24T07:42:08.592Z,14.70
2023-05-24T07:43:08.596Z,15.10
2023-05-24T07:44:08.579Z,15.44
2023-05-24T07:45:08.587Z,15.58
2023-05-24T07:46:08.578Z,15.47
2023-05-24T07:47:08.546Z,16.09
2023-05-24T07:48:08.611Z,16.64
2023-05-24T07:49:08.541Z,16.42
2023-05-24T07:50:08.550Z,16.36
2023-05-24T07:51:08.513Z,16.16
2023-05-24T07:52:08.513Z,16.09
2023-05-24T07:53:08.512Z,15.72
2023-05-24T07:54:08.525Z,15.77
2023-05-24T07:55:08.502Z,15.98
2023-05-24T07:56:08.474Z,15.95
2023-05-24T07:57:09.426Z,15.88
2023-05-24T07:58:09.455Z,16.02
2023-05-24T07:59:08.479Z,16.05
2023-05-24T08:00:08.468Z,16.12
2023-05-24T08:01:08.434Z,15.59
2023-05-24T08:02:08.423Z,15.58
2023-05-24T08:03:08.610Z,15.37
2023-05-24T08:04:08.530Z,15.35
2023-05-24T08:05:08.406Z,15.28
2023-05-24T08:06:08.395Z,15.37
2023-05-24T08:07:10.767Z,15.55
2023-05-24T08:08:08.379Z,15.57
2023-05-24T08:09:08.399Z,15.73
2023-05-24T08:10:08.366Z,15.95
2023-05-24T08:11:08.422Z,15.65
2023-05-24T08:12:08.356Z,15.94
2023-05-24T08:13:08.386Z,16.28
2023-05-24T08:14:08.355Z,16.35
2023-05-24T08:15:08.329Z,16.09
2023-05-24T08:16:08.353Z,16.69
2023-05-24T08:17:08.310Z,17.08
2023-05-24T08:18:08.373Z,16.89
2023-05-24T08:19:08.285Z,16.24
2023-05-24T08:20:08.328Z,15.73
2023-05-24T08:21:08.270Z,15.43
2023-05-24T08:22:08.271Z,15.76
2023-05-24T08:23:08.278Z,16.31
2023-05-24T08:24:09.626Z,17.31
2023-05-24T08:25:09.242Z,17.19
2023-05-24T08:26:08.243Z,17.11
2023-05-24T08:27:08.248Z,17.01
2023-05-24T08:28:08.321Z,17.11
2023-05-24T08:29:08.212Z,17.31
2023-05-24T08:30:08.209Z,18.18
2023-05-24T08:31:08.197Z,19.48
2023-05-24T08:32:08.314Z,20.06
2023-05-24T08:33:08.227Z,20.67
2023-05-24T08:34:08.182Z,21.36
2023-05-24T08:35:20.265Z,21.82
2023-05-24T08:36:10.178Z,21.24
2023-05-24T08:37:08.176Z,20.58
2023-05-24T08:38:08.159Z,20.39
2023-05-24T08:39:08.151Z,19.08
2023-05-24T08:40:08.132Z,17.48
2023-05-24T08:41:08.128Z,17.14
2023-05-24T08:42:10.089Z,16.47
2023-05-24T08:43:09.119Z,15.97
2023-05-24T08:44:08.121Z,15.76
2023-05-24T08:45:08.104Z,15.67
2023-05-24T08:46:08.148Z,15.61
2023-05-24T08:47:08.102Z,15.79
2023-05-24T08:48:08.163Z,15.83
2023-05-24T08:49:08.184Z,16.04
2023-05-24T08:50:08.058Z,16.54
2023-05-24T08:51:08.092Z,16.46
2023-05-24T08:52:08.041Z,17.01
2023-05-24T08:53:08.037Z,16.35
2023-05-24T08:54:08.021Z,15.61
2023-05-24T08:55:08.038Z,14.88
2023-05-24T08:56:08.039Z,14.20
2023-05-24T08:57:08.009Z,14.18
2023-05-24T08:58:08.003Z,14.84
2023-05-24T08:59:07.992Z,14.86
2023-05-24T09:00:08.006Z,14.89
2023-05-24T09:01:08.042Z,14.53
2023-05-24T09:02:07.992Z,14.36
2023-05-24T09:03:08.072Z,13.99
2023-05-24T09:04:07.974Z,13.70
2023-05-24T09:05:07.972Z,13.67
2023-05-24T09:06:07.940Z,13.46
2023-05-24T09:07:07.927Z,13.41
2023-05-24T09:08:07.924Z,13.11
2023-05-24T09:09:07.911Z,12.79
2023-05-24T09:10:07.955Z,12.61
2023-05-24T09:11:07.898Z,12.70
2023-05-24T09:12:07.889Z,12.76
2023-05-24T09:13:07.880Z,12.55
2023-05-24T09:14:07.920Z,12.64
2023-05-24T09:15:08.125Z,12.78
2023-05-24T09:16:07.915Z,13.03
2023-05-24T09:17:07.857Z,13.15
2023-05-24T09:18:07.937Z,13.39
2023-05-24T09:19:07.878Z,14.14
2023-05-24T09:20:07.832Z,14.68
2023-05-24T09:21:07.815Z,15.17
2023-05-24T09:22:07.817Z,15.22
2023-05-24T09:23:07.796Z,15.18
2023-05-24T09:24:07.810Z,15.37
2023-05-24T09:25:07.783Z,15.22
2023-05-24T09:26:07.776Z,14.79
2023-05-24T09:27:07.768Z,14.53
2023-05-24T09:28:07.757Z,14.51
2023-05-24T09:29:07.774Z,14.60
2023-05-24T09:30:07.733Z,14.78
2023-05-24T09:31:08.279Z,14.58
2023-05-24T09:32:08.726Z,14.62
2023-05-24T09:33:07.757Z,14.35
2023-05-24T09:34:07.737Z,14.05
2023-05-24T09:35:07.714Z,14.07
2023-05-24T09:36:07.694Z,14.47
2023-05-24T09:37:07.681Z,14.66
2023-05-24T09:38:07.696Z,14.43
2023-05-24T09:39:07.665Z,14.35
2023-05-24T09:40:07.659Z,14.12
2023-05-24T09:41:08.783Z,13.75
2023-05-24T09:42:07.662Z,13.83
2023-05-24T09:43:07.698Z,14.11
2023-05-24T09:44:07.634Z,14.53
2023-05-24T09:45:07.624Z,14.77
2023-05-24T09:46:07.619Z,14.89
2023-05-24T09:47:07.694Z,15.24
2023-05-24T09:48:07.706Z,15.17
2023-05-24T09:49:07.609Z,14.55
2023-05-24T09:50:07.640Z,14.33
2023-05-24T09:51:07.689Z,14.40
2023-05-24T09:52:07.654Z,14.55
2023-05-24T09:53:07.560Z,14.51
2023-05-24T09:54:07.550Z,14.22
2023-05-24T09:55:07.554Z,14.20
2023-05-24T09:56:07.555Z,14.12
2023-05-24T09:57:07.556Z,14.22
2023-05-24T09:58:07.543Z,14.14
2023-05-24T09:59:07.524Z,14.11
2023-05-24T10:00:07.529Z,14.05
2023-05-24T10:01:07.557Z,14.04
2023-05-24T10:02:07.533Z,14.32
2023-05-24T10:03:07.567Z,14.63
2023-05-24T10:04:09.877Z,14.94
2023-05-24T10:05:08.476Z,15.27
2023-05-24T10:06:07.487Z,15.18
2023-05-24T10:07:07.480Z,15.14
2023-05-24T10:08:07.448Z,15.14
2023-05-24T10:09:07.470Z,15.19
2023-05-24T10:10:07.675Z,15.28
2023-05-24T10:11:09.201Z,15.40
2023-05-24T10:12:07.408Z,15.43
2023-05-24T10:13:07.405Z,15.55
2023-05-24T10:14:07.389Z,15.59
2023-05-24T10:15:07.387Z,15.67
2023-05-24T10:16:07.462Z,15.55
2023-05-24T10:17:07.414Z,15.52
2023-05-24T10:18:08.191Z,15.68
2023-05-24T10:19:07.465Z,15.73
2023-05-24T10:20:07.461Z,15.75
2023-05-24T10:21:07.415Z,15.79
2023-05-24T10:22:07.335Z,16.00
2023-05-24T10:23:07.318Z,16.17
2023-05-24T10:24:08.977Z,16.42
2023-05-24T10:25:07.336Z,16.21
2023-05-24T10:26:07.309Z,16.00
2023-05-24T10:27:07.307Z,15.98
2023-05-24T10:28:08.155Z,15.91
2023-05-24T10:29:07.294Z,15.57
2023-05-24T10:30:10.116Z,15.43
2023-05-24T10:31:09.314Z,15.55
2023-05-24T10:32:07.248Z,15.58
2023-05-24T10:33:07.256Z,15.76
2023-05-24T10:34:08.736Z,15.97
2023-05-24T10:35:08.253Z,15.91
2023-05-24T10:36:09.474Z,16.00
2023-05-24T10:37:08.208Z,15.90
2023-05-24T10:38:07.554Z,16.00
2023-05-24T10:39:07.252Z,15.98
2023-05-24T10:40:07.230Z,16.05
2023-05-24T10:41:07.192Z,16.29
2023-05-24T10:42:09.591Z,16.35
2023-05-24T10:43:08.154Z,16.31
2023-05-24T10:44:10.131Z,16.35
2023-05-24T10:45:08.132Z,16.46
2023-05-24T10:46:07.137Z,16.65
2023-05-24T10:47:07.150Z,16.61
2023-05-24T10:48:07.221Z,16.94
2023-05-24T10:49:07.128Z,16.94
2023-05-24T10:50:07.108Z,16.64
2023-05-24T10:51:07.093Z,16.51
2023-05-24T10:52:07.101Z,16.17
2023-05-24T10:53:07.121Z,16.41
2023-05-24T10:54:08.996Z,16.50
2023-05-24T10:55:08.081Z,16.90
2023-05-24T10:56:07.060Z,17.20
2023-05-24T10:57:07.058Z,17.29
2023-05-24T10:58:07.061Z,16.99
2023-05-24T10:59:07.060Z,16.61
2023-05-24T11:00:09.064Z,16.00
2023-05-24T11:01:07.017Z,15.40
2023-05-24T11:02:07.082Z,15.14
2023-05-24T11:03:07.083Z,14.97
2023-05-24T11:04:06.991Z,15.06
2023-05-24T11:05:07.005Z,15.22
2023-05-24T11:06:07.066Z,15.21
2023-05-24T11:07:06.969Z,15.10
2023-05-24T11:08:06.999Z,15.03
2023-05-24T11:09:06.959Z,15.33
2023-05-24T11:10:06.973Z,15.46
2023-05-24T11:11:22.285Z,15.68
2023-05-24T11:12:08.972Z,15.86
2023-05-24T11:13:06.963Z,15.92
2023-05-24T11:14:06.917Z,16.13
2023-05-24T11:15:06.905Z,16.21
2023-05-24T11:16:06.932Z,16.10
2023-05-24T11:17:06.948Z,15.76
2023-05-24T11:18:06.939Z,15.49
2023-05-24T11:19:06.897Z,15.39
2023-05-24T11:20:06.907Z,15.58
2023-05-24T11:21:06.880Z,15.98
2023-05-24T11:22:06.912Z,16.39
2023-05-24T11:23:06.847Z,16.58
2023-05-24T11:24:06.840Z,16.33
2023-05-24T11:25:06.850Z,16.28
2023-05-24T11:26:06.850Z,16.57
2023-05-24T11:27:06.841Z,16.47
2023-05-24T11:28:06.865Z,16.26
2023-05-24T11:29:07.694Z,16.47
2023-05-24T11:30:06.804Z,16.76
2023-05-24T11:31:06.924Z,17.02
2023-05-24T11:32:06.805Z,16.83
2023-05-24T11:33:06.825Z,16.32
2023-05-24T11:34:06.777Z,16.17
2023-05-24T11:35:06.765Z,16.05
2023-05-24T11:36:06.780Z,16.13
2023-05-24T11:37:06.752Z,16.12
2023-05-24T11:38:06.731Z,15.97
2023-05-24T11:39:06.724Z,16.09
2023-05-24T11:40:06.738Z,16.21
2023-05-24T11:41:07.722Z,16.43
2023-05-24T11:42:06.812Z,16.90
2023-05-24T11:43:06.688Z,17.09
2023-05-24T11:44:06.693Z,17.36
2023-05-24T11:45:06.703Z,17.71
2023-05-24T11:46:06.707Z,17.68
2023-05-24T11:47:06.662Z,17.45
2023-05-24T11:48:06.715Z,17.19
2023-05-24T11:49:06.654Z,16.91
2023-05-24T11:50:06.660Z,16.78
2023-05-24T11:51:06.624Z,17.08
2023-05-24T11:52:06.624Z,17.16
2023-05-24T11:53:06.620Z,17.27
2023-05-24T11:54:06.627Z,17.02
2023-05-24T11:55:06.630Z,16.66
2023-05-24T11:56:06.577Z,16.56
2023-05-24T11:57:07.593Z,16.46
2023-05-24T11:58:06.588Z,16.16
2023-05-24T11:59:06.593Z,16.32
2023-05-24T12:00:06.574Z,16.36
2023-05-24T12:01:06.556Z,16.64
2023-05-24T12:02:06.612Z,16.33
2023-05-24T12:03:06.590Z,16.08
2023-05-24T12:04:06.692Z,16.12
2023-05-24T12:05:06.697Z,15.86
2023-05-24T12:06:06.508Z,15.75
2023-05-24T12:07:06.508Z,15.67
2023-05-24T12:08:06.494Z,15.88
2023-05-24T12:09:06.516Z,16.00
2023-05-24T12:10:06.480Z,15.84
2023-05-24T12:11:06.484Z,15.72
2023-05-24T12:12:06.468Z,15.33
2023-05-24T12:13:06.478Z,15.37
2023-05-24T12:14:06.478Z,15.54
2023-05-24T12:15:06.435Z,15.62
2023-05-24T12:16:06.473Z,15.77
2023-05-24T12:17:06.421Z,15.95
2023-05-24T12:18:06.487Z,16.17
2023-05-24T12:19:13.985Z,16.28
2023-05-24T12:20:08.433Z,16.29
2023-05-24T12:21:06.392Z,16.23
2023-05-24T12:22:06.709Z,16.08
2023-05-24T12:23:06.403Z,15.94
2023-05-24T12:24:06.365Z,15.43
2023-05-24T12:25:06.361Z,15.19
2023-05-24T12:26:06.351Z,15.24
2023-05-24T12:27:06.334Z,15.43
2023-05-24T12:28:06.369Z,15.46
2023-05-24T12:29:06.325Z,15.39
2023-05-24T12:30:06.318Z,15.29
2023-05-24T12:31:06.328Z,15.33
2023-05-24T12:32:06.323Z,15.25
2023-05-24T12:33:06.335Z,15.37
2023-05-24T12:34:06.285Z,15.51
2023-05-24T12:35:06.275Z,15.67
2023-05-24T12:36:06.263Z,15.76
2023-05-24T12:37:06.289Z,15.82
2023-05-24T12:38:06.258Z,15.83
2023-05-24T12:39:06.249Z,16.09
2023-05-24T12:40:06.236Z,16.04
2023-05-24T12:41:12.383Z,16.16
2023-05-24T12:42:08.257Z,16.23
2023-05-24T12:43:06.223Z,16.26
2023-05-24T12:44:06.202Z,16.15
2023-05-24T12:45:06.210Z,16.09
2023-05-24T12:46:06.209Z,15.80
2023-05-24T12:47:06.272Z,15.70
2023-05-24T12:48:06.208Z,15.72
2023-05-24T12:49:06.176Z,15.67
2023-05-24T12:50:06.167Z,15.70
2023-05-24T12:51:06.172Z,16.01
2023-05-24T12:52:06.633Z,15.91
2023-05-24T12:53:06.141Z,16.13
2023-05-24T12:54:06.142Z,16.28
2023-05-24T12:55:06.120Z,16.02
2023-05-24T12:56:06.154Z,15.79
2023-05-24T12:57:06.122Z,15.84
2023-05-24T12:58:06.104Z,16.02
2023-05-24T12:59:06.087Z,15.90
2023-05-24T13:00:06.120Z,16.00
2023-05-24T13:01:06.114Z,15.90
2023-05-24T13:02:06.066Z,15.97
2023-05-24T13:03:06.102Z,15.90
2023-05-24T13:04:06.058Z,15.73